sensor_id;sensor_type;location;lat;lon;timestamp;P1;durP1;ratioP1;P2;durP2;ratioP2
50851;SDS011;43953;45.508;-122.806;2023-02-08T00:00:06;4.22;;;1.45;;
50851;SDS011;43953;45.508;-122.806;2023-02-08T00:00:38;2.55;;;1.23;;
50851;SDS011;43953;45.508;-122.806;2023-02-08T00:01:11;3.67;;;1.30;;
50851;SDS011;43953;45.508;-122.806;2023-02-08T00:01:45;3.65;;;1.40;;
50851;SDS011;43953;45.508;-122.806;2023-02-08T00:02:17;2.78;;;1.30;;
50851;SDS011;43953;45.508;-122.806;2023-02-08T00:02:48;3.22;;;1.35;;
50851;SDS011;43953;45.508;-122.806;2023-02-08T00:03:20;3.40;;;1.40;;
50851;SDS011;43953;45.508;-122.806;2023-02-08T00:03:52;4.13;;;1.30;;
50851;SDS011;43953;45.508;-122.806;2023-02-08T00:04:24;2.65;;;1.25;;
50851;SDS011;43953;45.508;-122.806;2023-02-08T00:04:56;5.35;;;1.38;;
50851;SDS011;43953;45.508;-122.806;2023-02-08T00:05:28;4.13;;;1.55;;
50851;SDS011;43953;45.508;-122.806;2023-02-08T00:05:59;4.57;;;1.13;;
50851;SDS011;43953;45.508;-122.806;2023-02-08T00:06:31;2.78;;;1.20;;
50851;SDS011;43953;45.508;-122.806;2023-02-08T00:07:03;6.07;;;1.38;;
50851;SDS011;43953;45.508;-122.806;2023-02-08T00:07:34;3.22;;;1.23;;
50851;SDS011;43953;45.508;-122.806;2023-02-08T00:08:06;3.78;;;1.20;;
50851;SDS011;43953;45.508;-122.806;2023-02-08T00:08:38;3.15;;;1.63;;
50851;SDS011;43953;45.508;-122.806;2023-02-08T00:09:11;3.65;;;1.40;;
50851;SDS011;43953;45.508;-122.806;2023-02-08T00:09:42;3.10;;;1.50;;
50851;SDS011;43953;45.508;-122.806;2023-02-08T00:10:14;3.28;;;1.40;;
50851;SDS011;43953;45.508;-122.806;2023-02-08T00:10:46;4.38;;;1.70;;
50851;SDS011;43953;45.508;-122.806;2023-02-08T00:11:17;4.05;;;1.50;;
50851;SDS011;43953;45.508;-122.806;2023-02-08T00:11:49;4.43;;;1.17;;
50851;SDS011;43953;45.508;-122.806;2023-02-08T00:12:21;3.88;;;1.50;;
50851;SDS011;43953;45.508;-122.806;2023-02-08T00:12:53;2.70;;;1.23;;
50851;SDS011;43953;45.508;-122.806;2023-02-08T00:13:25;3.80;;;1.55;;
50851;SDS011;43953;45.508;-122.806;2023-02-08T00:13:56;5.18;;;1.73;;
50851;SDS011;43953;45.508;-122.806;2023-02-08T00:14:28;3.78;;;1.50;;
50851;SDS011;43953;45.508;-122.806;2023-02-08T00:15:00;3.75;;;1.50;;
50851;SDS011;43953;45.508;-122.806;2023-02-08T00:15:31;4.85;;;1.60;;
50851;SDS011;43953;45.508;-122.806;2023-02-08T00:16:03;3.88;;;1.63;;
50851;SDS011;43953;45.508;-122.806;2023-02-08T00:16:36;4.45;;;1.55;;
50851;SDS011;43953;45.508;-122.806;2023-02-08T00:17:08;4.40;;;1.40;;
50851;SDS011;43953;45.508;-122.806;2023-02-08T00:17:39;3.05;;;1.63;;
50851;SDS011;43953;45.508;-122.806;2023-02-08T00:18:11;4.20;;;1.30;;
50851;SDS011;43953;45.508;-122.806;2023-02-08T00:18:43;5.00;;;1.60;;
50851;SDS011;43953;45.508;-122.806;2023-02-08T00:19:15;3.53;;;1.33;;
50851;SDS011;43953;45.508;-122.806;2023-02-08T00:19:46;4.35;;;1.33;;
50851;SDS011;43953;45.508;-122.806;2023-02-08T00:20:18;2.95;;;1.17;;
50851;SDS011;43953;45.508;-122.806;2023-02-08T00:20:50;3.00;;;1.30;;
50851;SDS011;43953;45.508;-122.806;2023-02-08T00:21:22;4.88;;;1.50;;
50851;SDS011;43953;45.508;-122.806;2023-02-08T00:21:54;3.95;;;1.25;;
50851;SDS011;43953;45.508;-122.806;2023-02-08T00:22:25;4.38;;;1.55;;
50851;SDS011;43953;45.508;-122.806;2023-02-08T00:22:57;5.88;;;1.92;;
50851;SDS011;43953;45.508;-122.806;2023-02-08T00:23:29;4.70;;;1.60;;
50851;SDS011;43953;45.508;-122.806;2023-02-08T00:24:00;4.10;;;1.35;;
50851;SDS011;43953;45.508;-122.806;2023-02-08T00:24:32;4.80;;;1.83;;
50851;SDS011;43953;45.508;-122.806;2023-02-08T00:25:04;5.43;;;1.70;;
50851;SDS011;43953;45.508;-122.806;2023-02-08T00:25:37;4.95;;;1.42;;
50851;SDS011;43953;45.508;-122.806;2023-02-08T00:26:09;2.97;;;1.30;;
50851;SDS011;43953;45.508;-122.806;2023-02-08T00:26:41;4.45;;;1.80;;
50851;SDS011;43953;45.508;-122.806;2023-02-08T00:27:13;3.15;;;1.52;;
50851;SDS011;43953;45.508;-122.806;2023-02-08T00:27:45;3.90;;;1.50;;
50851;SDS011;43953;45.508;-122.806;2023-02-08T00:28:17;6.55;;;1.40;;
50851;SDS011;43953;45.508;-122.806;2023-02-08T00:28:49;3.35;;;1.13;;
50851;SDS011;43953;45.508;-122.806;2023-02-08T00:29:21;4.95;;;1.52;;
50851;SDS011;43953;45.508;-122.806;2023-02-08T00:29:52;6.75;;;1.75;;
50851;SDS011;43953;45.508;-122.806;2023-02-08T00:30:24;5.00;;;1.75;;
50851;SDS011;43953;45.508;-122.806;2023-02-08T00:30:56;3.90;;;1.30;;
50851;SDS011;43953;45.508;-122.806;2023-02-08T00:31:28;6.93;;;1.63;;
50851;SDS011;43953;45.508;-122.806;2023-02-08T00:32:00;4.50;;;1.50;;
50851;SDS011;43953;45.508;-122.806;2023-02-08T00:32:32;3.42;;;1.58;;
50851;SDS011;43953;45.508;-122.806;2023-02-08T00:33:03;5.47;;;1.88;;
50851;SDS011;43953;45.508;-122.806;2023-02-08T00:33:35;3.75;;;1.38;;
50851;SDS011;43953;45.508;-122.806;2023-02-08T00:34:07;4.57;;;1.33;;
50851;SDS011;43953;45.508;-122.806;2023-02-08T00:34:38;5.68;;;1.55;;
50851;SDS011;43953;45.508;-122.806;2023-02-08T00:35:10;4.57;;;1.30;;
50851;SDS011;43953;45.508;-122.806;2023-02-08T00:35:42;3.10;;;1.45;;
50851;SDS011;43953;45.508;-122.806;2023-02-08T00:36:13;4.75;;;1.52;;
50851;SDS011;43953;45.508;-122.806;2023-02-08T00:36:47;5.40;;;1.73;;
50851;SDS011;43953;45.508;-122.806;2023-02-08T00:37:18;5.97;;;2.00;;
50851;SDS011;43953;45.508;-122.806;2023-02-08T00:37:50;4.13;;;1.40;;
50851;SDS011;43953;45.508;-122.806;2023-02-08T00:38:22;5.82;;;1.40;;
50851;SDS011;43953;45.508;-122.806;2023-02-08T00:38:53;3.10;;;1.30;;
50851;SDS011;43953;45.508;-122.806;2023-02-08T00:39:25;3.95;;;1.35;;
50851;SDS011;43953;45.508;-122.806;2023-02-08T00:39:57;6.10;;;1.55;;
50851;SDS011;43953;45.508;-122.806;2023-02-08T00:40:31;4.72;;;1.88;;
50851;SDS011;43953;45.508;-122.806;2023-02-08T00:41:03;4.97;;;1.48;;
50851;SDS011;43953;45.508;-122.806;2023-02-08T00:41:35;4.05;;;1.65;;
50851;SDS011;43953;45.508;-122.806;2023-02-08T00:42:06;4.05;;;1.58;;
50851;SDS011;43953;45.508;-122.806;2023-02-08T00:42:38;5.93;;;2.10;;
50851;SDS011;43953;45.508;-122.806;2023-02-08T00:43:10;5.93;;;1.88;;
50851;SDS011;43953;45.508;-122.806;2023-02-08T00:43:41;4.38;;;1.90;;
50851;SDS011;43953;45.508;-122.806;2023-02-08T00:44:13;4.75;;;1.80;;
50851;SDS011;43953;45.508;-122.806;2023-02-08T00:44:45;5.63;;;1.50;;
50851;SDS011;43953;45.508;-122.806;2023-02-08T00:45:17;6.18;;;1.73;;
50851;SDS011;43953;45.508;-122.806;2023-02-08T00:45:54;5.75;;;2.00;;
50851;SDS011;43953;45.508;-122.806;2023-02-08T00:46:27;11.13;;;2.90;;
50851;SDS011;43953;45.508;-122.806;2023-02-08T00:46:59;8.77;;;3.42;;
50851;SDS011;43953;45.508;-122.806;2023-02-08T00:47:31;9.50;;;3.05;;
50851;SDS011;43953;45.508;-122.806;2023-02-08T00:48:02;9.60;;;3.75;;
50851;SDS011;43953;45.508;-122.806;2023-02-08T00:48:34;9.57;;;2.92;;
50851;SDS011;43953;45.508;-122.806;2023-02-08T00:49:06;6.82;;;2.90;;
50851;SDS011;43953;45.508;-122.806;2023-02-08T00:49:38;6.82;;;2.80;;
50851;SDS011;43953;45.508;-122.806;2023-02-08T00:50:09;5.65;;;3.10;;
50851;SDS011;43953;45.508;-122.806;2023-02-08T00:50:41;7.60;;;2.72;;
50851;SDS011;43953;45.508;-122.806;2023-02-08T00:51:13;8.27;;;3.00;;
50851;SDS011;43953;45.508;-122.806;2023-02-08T00:51:45;9.48;;;2.90;;
50851;SDS011;43953;45.508;-122.806;2023-02-08T00:52:17;5.32;;;2.33;;
50851;SDS011;43953;45.508;-122.806;2023-02-08T00:52:49;8.63;;;2.78;;
50851;SDS011;43953;45.508;-122.806;2023-02-08T00:53:21;4.68;;;2.20;;
50851;SDS011;43953;45.508;-122.806;2023-02-08T00:53:52;6.60;;;2.08;;
50851;SDS011;43953;45.508;-122.806;2023-02-08T00:54:24;6.53;;;2.25;;
50851;SDS011;43953;45.508;-122.806;2023-02-08T00:54:56;6.65;;;2.50;;
50851;SDS011;43953;45.508;-122.806;2023-02-08T00:55:27;5.80;;;2.15;;
50851;SDS011;43953;45.508;-122.806;2023-02-08T00:56:00;8.98;;;2.35;;
50851;SDS011;43953;45.508;-122.806;2023-02-08T00:56:31;6.03;;;2.70;;
50851;SDS011;43953;45.508;-122.806;2023-02-08T00:57:03;6.70;;;2.00;;
50851;SDS011;43953;45.508;-122.806;2023-02-08T00:57:35;8.98;;;3.00;;
50851;SDS011;43953;45.508;-122.806;2023-02-08T00:58:06;6.07;;;1.80;;
50851;SDS011;43953;45.508;-122.806;2023-02-08T00:58:38;5.57;;;1.75;;
50851;SDS011;43953;45.508;-122.806;2023-02-08T00:59:10;8.00;;;2.25;;
50851;SDS011;43953;45.508;-122.806;2023-02-08T00:59:42;5.40;;;1.80;;
50851;SDS011;43953;45.508;-122.806;2023-02-08T01:00:14;4.95;;;1.90;;
50851;SDS011;43953;45.508;-122.806;2023-02-08T01:00:48;7.18;;;1.83;;
50851;SDS011;43953;45.508;-122.806;2023-02-08T01:01:22;5.22;;;2.13;;
50851;SDS011;43953;45.508;-122.806;2023-02-08T01:01:55;7.97;;;1.80;;
50851;SDS011;43953;45.508;-122.806;2023-02-08T01:02:26;4.25;;;1.55;;
50851;SDS011;43953;45.508;-122.806;2023-02-08T01:02:58;6.43;;;1.85;;
50851;SDS011;43953;45.508;-122.806;2023-02-08T01:03:31;5.70;;;1.80;;
50851;SDS011;43953;45.508;-122.806;2023-02-08T01:04:05;5.00;;;1.90;;
50851;SDS011;43953;45.508;-122.806;2023-02-08T01:04:36;6.90;;;2.42;;
50851;SDS011;43953;45.508;-122.806;2023-02-08T01:05:08;8.85;;;2.03;;
50851;SDS011;43953;45.508;-122.806;2023-02-08T01:05:40;6.32;;;1.75;;
50851;SDS011;43953;45.508;-122.806;2023-02-08T01:06:13;5.22;;;1.60;;
50851;SDS011;43953;45.508;-122.806;2023-02-08T01:06:47;8.50;;;1.75;;
50851;SDS011;43953;45.508;-122.806;2023-02-08T01:07:18;5.25;;;1.70;;
50851;SDS011;43953;45.508;-122.806;2023-02-08T01:07:50;6.63;;;2.05;;
50851;SDS011;43953;45.508;-122.806;2023-02-08T01:08:22;5.95;;;2.03;;
50851;SDS011;43953;45.508;-122.806;2023-02-08T01:08:53;6.50;;;1.70;;
50851;SDS011;43953;45.508;-122.806;2023-02-08T01:09:25;6.53;;;2.00;;
50851;SDS011;43953;45.508;-122.806;2023-02-08T01:09:57;3.72;;;1.38;;
50851;SDS011;43953;45.508;-122.806;2023-02-08T01:10:31;5.80;;;1.48;;
50851;SDS011;43953;45.508;-122.806;2023-02-08T01:11:46;5.15;;;1.55;;
50851;SDS011;43953;45.508;-122.806;2023-02-08T01:12:17;4.22;;;1.42;;
50851;SDS011;43953;45.508;-122.806;2023-02-08T01:12:49;4.60;;;1.48;;
50851;SDS011;43953;45.508;-122.806;2023-02-08T01:13:21;6.40;;;1.80;;
50851;SDS011;43953;45.508;-122.806;2023-02-08T01:13:54;4.55;;;1.42;;
50851;SDS011;43953;45.508;-122.806;2023-02-08T01:14:29;6.72;;;1.80;;
50851;SDS011;43953;45.508;-122.806;2023-02-08T01:15:01;6.13;;;2.10;;
50851;SDS011;43953;45.508;-122.806;2023-02-08T01:15:33;4.63;;;1.63;;
50851;SDS011;43953;45.508;-122.806;2023-02-08T01:16:10;6.32;;;2.00;;
50851;SDS011;43953;45.508;-122.806;2023-02-08T01:16:46;4.72;;;1.67;;
50851;SDS011;43953;45.508;-122.806;2023-02-08T01:17:18;4.63;;;1.77;;
50851;SDS011;43953;45.508;-122.806;2023-02-08T01:17:53;5.88;;;1.90;;
50851;SDS011;43953;45.508;-122.806;2023-02-08T01:18:26;6.38;;;2.08;;
50851;SDS011;43953;45.508;-122.806;2023-02-08T01:18:58;6.43;;;2.22;;
50851;SDS011;43953;45.508;-122.806;2023-02-08T01:19:31;4.07;;;1.83;;
50851;SDS011;43953;45.508;-122.806;2023-02-08T01:20:03;5.70;;;2.00;;
50851;SDS011;43953;45.508;-122.806;2023-02-08T01:20:35;7.65;;;2.58;;
50851;SDS011;43953;45.508;-122.806;2023-02-08T01:21:09;5.80;;;1.95;;
50851;SDS011;43953;45.508;-122.806;2023-02-08T01:21:43;6.70;;;1.80;;
50851;SDS011;43953;45.508;-122.806;2023-02-08T01:22:15;6.18;;;1.83;;
50851;SDS011;43953;45.508;-122.806;2023-02-08T01:22:47;5.72;;;1.83;;
50851;SDS011;43953;45.508;-122.806;2023-02-08T01:23:19;5.15;;;1.83;;
50851;SDS011;43953;45.508;-122.806;2023-02-08T01:23:50;6.22;;;2.00;;
50851;SDS011;43953;45.508;-122.806;2023-02-08T01:24:22;7.63;;;2.38;;
50851;SDS011;43953;45.508;-122.806;2023-02-08T01:24:54;6.93;;;1.88;;
50851;SDS011;43953;45.508;-122.806;2023-02-08T01:25:26;8.32;;;1.95;;
50851;SDS011;43953;45.508;-122.806;2023-02-08T01:25:57;8.50;;;2.15;;
50851;SDS011;43953;45.508;-122.806;2023-02-08T01:26:29;6.18;;;2.15;;
50851;SDS011;43953;45.508;-122.806;2023-02-08T01:27:01;5.78;;;1.73;;
50851;SDS011;43953;45.508;-122.806;2023-02-08T01:27:33;8.32;;;1.98;;
50851;SDS011;43953;45.508;-122.806;2023-02-08T01:28:04;9.68;;;2.28;;
50851;SDS011;43953;45.508;-122.806;2023-02-08T01:28:36;6.95;;;2.20;;
50851;SDS011;43953;45.508;-122.806;2023-02-08T01:29:08;5.65;;;1.92;;
50851;SDS011;43953;45.508;-122.806;2023-02-08T01:29:40;3.97;;;1.50;;
50851;SDS011;43953;45.508;-122.806;2023-02-08T01:30:12;6.40;;;2.00;;
50851;SDS011;43953;45.508;-122.806;2023-02-08T01:30:44;7.35;;;2.17;;
50851;SDS011;43953;45.508;-122.806;2023-02-08T01:31:17;5.65;;;1.73;;
50851;SDS011;43953;45.508;-122.806;2023-02-08T01:31:50;8.00;;;2.20;;
50851;SDS011;43953;45.508;-122.806;2023-02-08T01:32:22;6.68;;;1.88;;
50851;SDS011;43953;45.508;-122.806;2023-02-08T01:32:54;6.25;;;1.98;;
50851;SDS011;43953;45.508;-122.806;2023-02-08T01:33:25;6.80;;;2.00;;
50851;SDS011;43953;45.508;-122.806;2023-02-08T01:33:57;6.28;;;1.75;;
50851;SDS011;43953;45.508;-122.806;2023-02-08T01:34:30;5.50;;;2.20;;
50851;SDS011;43953;45.508;-122.806;2023-02-08T01:35:02;7.07;;;2.03;;
50851;SDS011;43953;45.508;-122.806;2023-02-08T01:35:34;6.05;;;2.22;;
50851;SDS011;43953;45.508;-122.806;2023-02-08T01:36:05;5.57;;;2.20;;
50851;SDS011;43953;45.508;-122.806;2023-02-08T01:36:38;4.78;;;2.00;;
50851;SDS011;43953;45.508;-122.806;2023-02-08T01:37:10;7.68;;;2.15;;
50851;SDS011;43953;45.508;-122.806;2023-02-08T01:37:41;9.50;;;2.45;;
50851;SDS011;43953;45.508;-122.806;2023-02-08T01:38:13;7.45;;;2.03;;
50851;SDS011;43953;45.508;-122.806;2023-02-08T01:38:45;5.32;;;1.90;;
50851;SDS011;43953;45.508;-122.806;2023-02-08T01:39:17;6.03;;;1.92;;
50851;SDS011;43953;45.508;-122.806;2023-02-08T01:39:49;7.80;;;2.00;;
50851;SDS011;43953;45.508;-122.806;2023-02-08T01:40:21;7.10;;;1.98;;
50851;SDS011;43953;45.508;-122.806;2023-02-08T01:40:52;8.48;;;2.50;;
50851;SDS011;43953;45.508;-122.806;2023-02-08T01:41:26;8.68;;;2.55;;
50851;SDS011;43953;45.508;-122.806;2023-02-08T01:41:59;7.43;;;2.30;;
50851;SDS011;43953;45.508;-122.806;2023-02-08T01:42:31;7.50;;;2.35;;
50851;SDS011;43953;45.508;-122.806;2023-02-08T01:43:05;7.78;;;1.88;;
50851;SDS011;43953;45.508;-122.806;2023-02-08T01:43:57;5.47;;;2.10;;
50851;SDS011;43953;45.508;-122.806;2023-02-08T01:45:50;9.70;;;2.60;;
50851;SDS011;43953;45.508;-122.806;2023-02-08T01:46:22;7.85;;;2.28;;
50851;SDS011;43953;45.508;-122.806;2023-02-08T01:46:54;7.90;;;2.35;;
50851;SDS011;43953;45.508;-122.806;2023-02-08T01:47:26;6.38;;;2.15;;
50851;SDS011;43953;45.508;-122.806;2023-02-08T01:48:02;6.88;;;2.17;;
50851;SDS011;43953;45.508;-122.806;2023-02-08T01:48:40;5.13;;;2.03;;
50851;SDS011;43953;45.508;-122.806;2023-02-08T01:49:49;8.70;;;2.65;;
50851;SDS011;43953;45.508;-122.806;2023-02-08T01:50:23;7.38;;;1.95;;
50851;SDS011;43953;45.508;-122.806;2023-02-08T01:51:01;6.88;;;2.10;;
50851;SDS011;43953;45.508;-122.806;2023-02-08T01:51:35;6.82;;;1.80;;
50851;SDS011;43953;45.508;-122.806;2023-02-08T01:52:16;7.88;;;2.40;;
50851;SDS011;43953;45.508;-122.806;2023-02-08T01:52:50;10.77;;;2.17;;
50851;SDS011;43953;45.508;-122.806;2023-02-08T01:53:22;7.97;;;2.08;;
50851;SDS011;43953;45.508;-122.806;2023-02-08T01:53:56;7.20;;;2.20;;
50851;SDS011;43953;45.508;-122.806;2023-02-08T01:54:34;9.70;;;2.45;;
50851;SDS011;43953;45.508;-122.806;2023-02-08T01:55:20;7.25;;;2.00;;
50851;SDS011;43953;45.508;-122.806;2023-02-08T01:56:04;5.82;;;2.10;;
50851;SDS011;43953;45.508;-122.806;2023-02-08T01:56:40;6.60;;;2.05;;
50851;SDS011;43953;45.508;-122.806;2023-02-08T01:57:15;6.97;;;2.30;;
50851;SDS011;43953;45.508;-122.806;2023-02-08T01:57:48;8.15;;;2.08;;
50851;SDS011;43953;45.508;-122.806;2023-02-08T01:58:25;5.55;;;2.10;;
50851;SDS011;43953;45.508;-122.806;2023-02-08T01:59:00;4.82;;;1.63;;
50851;SDS011;43953;45.508;-122.806;2023-02-08T01:59:43;9.77;;;2.88;;
50851;SDS011;43953;45.508;-122.806;2023-02-08T02:00:19;8.02;;;2.40;;
50851;SDS011;43953;45.508;-122.806;2023-02-08T02:00:52;6.97;;;1.80;;
50851;SDS011;43953;45.508;-122.806;2023-02-08T02:01:24;9.10;;;2.30;;
50851;SDS011;43953;45.508;-122.806;2023-02-08T02:01:59;8.48;;;2.35;;
50851;SDS011;43953;45.508;-122.806;2023-02-08T02:02:32;7.57;;;2.50;;
50851;SDS011;43953;45.508;-122.806;2023-02-08T02:03:07;6.38;;;2.20;;
50851;SDS011;43953;45.508;-122.806;2023-02-08T02:03:39;8.35;;;2.90;;
50851;SDS011;43953;45.508;-122.806;2023-02-08T02:04:10;7.75;;;2.55;;
50851;SDS011;43953;45.508;-122.806;2023-02-08T02:04:43;8.00;;;2.40;;
50851;SDS011;43953;45.508;-122.806;2023-02-08T02:05:15;9.25;;;3.10;;
50851;SDS011;43953;45.508;-122.806;2023-02-08T02:05:51;9.23;;;3.13;;
50851;SDS011;43953;45.508;-122.806;2023-02-08T02:06:29;8.60;;;3.53;;
50851;SDS011;43953;45.508;-122.806;2023-02-08T02:07:04;8.02;;;2.85;;
50851;SDS011;43953;45.508;-122.806;2023-02-08T02:07:36;5.03;;;2.35;;
50851;SDS011;43953;45.508;-122.806;2023-02-08T02:08:09;8.85;;;3.50;;
50851;SDS011;43953;45.508;-122.806;2023-02-08T02:08:51;8.70;;;2.90;;
50851;SDS011;43953;45.508;-122.806;2023-02-08T02:10:24;11.02;;;2.95;;
50851;SDS011;43953;45.508;-122.806;2023-02-08T02:10:57;10.70;;;3.13;;
50851;SDS011;43953;45.508;-122.806;2023-02-08T02:11:29;10.77;;;2.88;;
50851;SDS011;43953;45.508;-122.806;2023-02-08T02:12:01;11.23;;;3.15;;
50851;SDS011;43953;45.508;-122.806;2023-02-08T02:12:33;6.68;;;2.70;;
50851;SDS011;43953;45.508;-122.806;2023-02-08T02:13:14;7.90;;;2.83;;
50851;SDS011;43953;45.508;-122.806;2023-02-08T02:13:48;9.70;;;3.17;;
50851;SDS011;43953;45.508;-122.806;2023-02-08T02:14:21;9.43;;;2.95;;
50851;SDS011;43953;45.508;-122.806;2023-02-08T02:14:53;9.40;;;2.80;;
50851;SDS011;43953;45.508;-122.806;2023-02-08T02:15:26;7.65;;;2.83;;
50851;SDS011;43953;45.508;-122.806;2023-02-08T02:15:58;9.25;;;3.03;;
50851;SDS011;43953;45.508;-122.806;2023-02-08T02:16:29;10.77;;;2.65;;
50851;SDS011;43953;45.508;-122.806;2023-02-08T02:17:01;7.88;;;2.95;;
50851;SDS011;43953;45.508;-122.806;2023-02-08T02:17:33;7.65;;;2.75;;
50851;SDS011;43953;45.508;-122.806;2023-02-08T02:18:06;8.30;;;2.72;;
50851;SDS011;43953;45.508;-122.806;2023-02-08T02:18:39;7.80;;;2.88;;
50851;SDS011;43953;45.508;-122.806;2023-02-08T02:19:14;13.38;;;3.40;;
50851;SDS011;43953;45.508;-122.806;2023-02-08T02:22:16;9.95;;;2.35;;
50851;SDS011;43953;45.508;-122.806;2023-02-08T02:23:57;7.60;;;2.50;;
50851;SDS011;43953;45.508;-122.806;2023-02-08T02:27:31;8.13;;;2.55;;
50851;SDS011;43953;45.508;-122.806;2023-02-08T02:33:22;7.63;;;2.30;;
50851;SDS011;43953;45.508;-122.806;2023-02-08T02:33:55;7.72;;;2.38;;
50851;SDS011;43953;45.508;-122.806;2023-02-08T02:35:07;11.82;;;2.75;;
50851;SDS011;43953;45.508;-122.806;2023-02-08T02:35:49;8.80;;;2.75;;
50851;SDS011;43953;45.508;-122.806;2023-02-08T02:37:11;9.60;;;2.30;;
50851;SDS011;43953;45.508;-122.806;2023-02-08T02:37:55;7.45;;;2.70;;
50851;SDS011;43953;45.508;-122.806;2023-02-08T02:41:32;7.75;;;2.50;;
50851;SDS011;43953;45.508;-122.806;2023-02-08T02:42:47;8.35;;;2.30;;
50851;SDS011;43953;45.508;-122.806;2023-02-08T02:43:53;7.28;;;2.67;;
50851;SDS011;43953;45.508;-122.806;2023-02-08T02:49:46;4.88;;;2.58;;
50851;SDS011;43953;45.508;-122.806;2023-02-08T02:51:15;7.70;;;2.88;;
50851;SDS011;43953;45.508;-122.806;2023-02-08T02:52:11;7.55;;;2.63;;
50851;SDS011;43953;45.508;-122.806;2023-02-08T02:52:57;7.97;;;3.17;;
50851;SDS011;43953;45.508;-122.806;2023-02-08T02:53:40;8.75;;;3.67;;
50851;SDS011;43953;45.508;-122.806;2023-02-08T02:54:42;10.65;;;3.15;;
50851;SDS011;43953;45.508;-122.806;2023-02-08T02:55:29;9.60;;;2.97;;
50851;SDS011;43953;45.508;-122.806;2023-02-08T02:56:11;6.68;;;2.80;;
50851;SDS011;43953;45.508;-122.806;2023-02-08T02:56:51;9.23;;;3.00;;
50851;SDS011;43953;45.508;-122.806;2023-02-08T02:57:29;7.30;;;2.65;;
50851;SDS011;43953;45.508;-122.806;2023-02-08T02:58:03;8.10;;;3.20;;
50851;SDS011;43953;45.508;-122.806;2023-02-08T02:58:38;10.13;;;3.42;;
50851;SDS011;43953;45.508;-122.806;2023-02-08T02:59:12;7.60;;;3.08;;
50851;SDS011;43953;45.508;-122.806;2023-02-08T02:59:45;11.27;;;3.22;;
50851;SDS011;43953;45.508;-122.806;2023-02-08T03:00:19;7.95;;;2.88;;
50851;SDS011;43953;45.508;-122.806;2023-02-08T03:00:54;9.93;;;3.17;;
50851;SDS011;43953;45.508;-122.806;2023-02-08T03:01:27;7.50;;;3.00;;
50851;SDS011;43953;45.508;-122.806;2023-02-08T03:02:00;8.48;;;3.10;;
50851;SDS011;43953;45.508;-122.806;2023-02-08T03:02:32;10.27;;;2.92;;
50851;SDS011;43953;45.508;-122.806;2023-02-08T03:03:04;7.70;;;2.80;;
50851;SDS011;43953;45.508;-122.806;2023-02-08T03:03:36;7.80;;;2.70;;
50851;SDS011;43953;45.508;-122.806;2023-02-08T03:05:04;6.85;;;2.70;;
50851;SDS011;43953;45.508;-122.806;2023-02-08T03:05:37;9.02;;;2.80;;
50851;SDS011;43953;45.508;-122.806;2023-02-08T03:06:11;9.25;;;2.97;;
50851;SDS011;43953;45.508;-122.806;2023-02-08T03:07:08;7.70;;;3.80;;
50851;SDS011;43953;45.508;-122.806;2023-02-08T03:11:13;5.30;;;2.00;;
50851;SDS011;43953;45.508;-122.806;2023-02-08T03:13:03;8.68;;;2.65;;
50851;SDS011;43953;45.508;-122.806;2023-02-08T03:15:12;9.48;;;2.72;;
50851;SDS011;43953;45.508;-122.806;2023-02-08T03:15:39;5.57;;;2.22;;
50851;SDS011;43953;45.508;-122.806;2023-02-08T03:16:56;7.40;;;2.60;;
50851;SDS011;43953;45.508;-122.806;2023-02-08T03:17:49;9.40;;;2.53;;
50851;SDS011;43953;45.508;-122.806;2023-02-08T03:19:00;6.55;;;2.22;;
50851;SDS011;43953;45.508;-122.806;2023-02-08T03:20:08;8.43;;;2.13;;
50851;SDS011;43953;45.508;-122.806;2023-02-08T03:22:24;7.65;;;2.10;;
50851;SDS011;43953;45.508;-122.806;2023-02-08T03:23:59;9.45;;;2.28;;
50851;SDS011;43953;45.508;-122.806;2023-02-08T03:26:57;6.28;;;2.00;;
50851;SDS011;43953;45.508;-122.806;2023-02-08T03:28:39;9.95;;;2.40;;
50851;SDS011;43953;45.508;-122.806;2023-02-08T03:32:37;6.15;;;2.70;;
50851;SDS011;43953;45.508;-122.806;2023-02-08T03:33:14;7.13;;;2.58;;
50851;SDS011;43953;45.508;-122.806;2023-02-08T03:33:56;6.22;;;2.35;;
50851;SDS011;43953;45.508;-122.806;2023-02-08T03:34:53;7.47;;;2.50;;
50851;SDS011;43953;45.508;-122.806;2023-02-08T03:35:32;10.50;;;2.75;;
50851;SDS011;43953;45.508;-122.806;2023-02-08T03:36:30;9.00;;;2.38;;
50851;SDS011;43953;45.508;-122.806;2023-02-08T03:37:58;8.20;;;2.70;;
50851;SDS011;43953;45.508;-122.806;2023-02-08T03:38:46;6.70;;;2.47;;
50851;SDS011;43953;45.508;-122.806;2023-02-08T03:39:22;6.55;;;2.70;;
50851;SDS011;43953;45.508;-122.806;2023-02-08T03:40:03;9.15;;;2.78;;
50851;SDS011;43953;45.508;-122.806;2023-02-08T03:40:43;10.25;;;2.78;;
50851;SDS011;43953;45.508;-122.806;2023-02-08T03:41:20;8.77;;;2.95;;
50851;SDS011;43953;45.508;-122.806;2023-02-08T03:41:59;6.75;;;2.42;;
50851;SDS011;43953;45.508;-122.806;2023-02-08T03:43:55;6.53;;;2.88;;
50851;SDS011;43953;45.508;-122.806;2023-02-08T03:46:37;6.18;;;2.75;;
50851;SDS011;43953;45.508;-122.806;2023-02-08T03:47:17;8.65;;;3.38;;
50851;SDS011;43953;45.508;-122.806;2023-02-08T03:47:53;10.18;;;3.70;;
50851;SDS011;43953;45.508;-122.806;2023-02-08T03:48:28;10.02;;;3.38;;
50851;SDS011;43953;45.508;-122.806;2023-02-08T03:49:02;10.02;;;3.42;;
50851;SDS011;43953;45.508;-122.806;2023-02-08T03:49:38;8.23;;;3.20;;
50851;SDS011;43953;45.508;-122.806;2023-02-08T03:50:14;12.43;;;3.45;;
50851;SDS011;43953;45.508;-122.806;2023-02-08T03:50:48;9.35;;;3.30;;
50851;SDS011;43953;45.508;-122.806;2023-02-08T03:51:23;7.93;;;3.25;;
50851;SDS011;43953;45.508;-122.806;2023-02-08T03:52:00;7.38;;;3.17;;
50851;SDS011;43953;45.508;-122.806;2023-02-08T03:52:34;6.88;;;3.47;;
50851;SDS011;43953;45.508;-122.806;2023-02-08T03:53:07;12.07;;;3.88;;
50851;SDS011;43953;45.508;-122.806;2023-02-08T03:53:41;10.80;;;3.78;;
50851;SDS011;43953;45.508;-122.806;2023-02-08T03:54:17;14.85;;;5.05;;
50851;SDS011;43953;45.508;-122.806;2023-02-08T03:54:56;9.35;;;3.83;;
50851;SDS011;43953;45.508;-122.806;2023-02-08T03:55:32;10.85;;;5.43;;
50851;SDS011;43953;45.508;-122.806;2023-02-08T03:56:16;11.98;;;5.55;;
50851;SDS011;43953;45.508;-122.806;2023-02-08T03:56:58;14.57;;;7.32;;
50851;SDS011;43953;45.508;-122.806;2023-02-08T03:58:54;16.65;;;8.55;;
50851;SDS011;43953;45.508;-122.806;2023-02-08T03:59:21;16.85;;;8.68;;
50851;SDS011;43953;45.508;-122.806;2023-02-08T04:00:02;17.33;;;8.23;;
50851;SDS011;43953;45.508;-122.806;2023-02-08T04:00:40;13.82;;;7.22;;
50851;SDS011;43953;45.508;-122.806;2023-02-08T04:01:22;16.58;;;7.45;;
50851;SDS011;43953;45.508;-122.806;2023-02-08T04:02:15;14.48;;;7.00;;
50851;SDS011;43953;45.508;-122.806;2023-02-08T04:02:54;13.88;;;7.57;;
50851;SDS011;43953;45.508;-122.806;2023-02-08T04:03:32;15.50;;;7.32;;
50851;SDS011;43953;45.508;-122.806;2023-02-08T04:04:05;13.80;;;7.07;;
50851;SDS011;43953;45.508;-122.806;2023-02-08T04:04:39;16.10;;;6.80;;
50851;SDS011;43953;45.508;-122.806;2023-02-08T04:05:14;11.18;;;6.13;;
50851;SDS011;43953;45.508;-122.806;2023-02-08T04:05:50;12.27;;;6.38;;
50851;SDS011;43953;45.508;-122.806;2023-02-08T04:06:22;12.13;;;6.28;;
50851;SDS011;43953;45.508;-122.806;2023-02-08T04:06:54;13.57;;;6.20;;
50851;SDS011;43953;45.508;-122.806;2023-02-08T04:07:26;14.20;;;6.43;;
50851;SDS011;43953;45.508;-122.806;2023-02-08T04:07:57;11.15;;;6.30;;